Time;durP1;ratioP1;P1;durP2;ratioP2;P2;SDS_P1;SDS_P2;PMS_P1;PMS_P2;Temp;Humidity;BMP_temperature;BMP_pressure;BME280_temperature;BME280_humidity;BME280_pressure;Samples;Min_cycle;Max_cycle;Signal;HPM_P1;HPM_P2
2021/12/03 00:00:47;;;;;;;5.55;2.87;;;2.10;99.90;;;;;;1952184;72;21156;-75
2021/12/03 00:03:13;;;;;;;5.03;2.80;;;2.10;99.90;;;;;;1956433;71;21075;-75
2021/12/03 00:05:40;;;;;;;7.35;2.60;;;2.10;99.90;;;;;;1958606;72;21144;-77
2021/12/03 00:08:06;;;;;;;3.30;2.47;;;2.00;99.90;;;;;;1954502;72;21070;-75
2021/12/03 00:10:34;;;;;;;5.87;2.90;;;2.00;99.90;;;;;;1959755;72;21141;-75
2021/12/03 00:13:00;;;;;;;4.87;2.98;;;2.00;99.90;;;;;;1957459;72;21140;-76
2021/12/03 00:15:27;;;;;;;9.23;3.40;;;2.00;99.90;;;;;;1946441;72;21212;-76
2021/12/03 00:17:53;;;;;;;3.42;2.45;;;2.00;99.90;;;;;;1941133;72;21059;-75
2021/12/03 00:20:19;;;;;;;2.87;2.27;;;2.00;99.90;;;;;;1943162;73;21032;-76
2021/12/03 00:22:45;;;;;;;3.42;2.15;;;2.00;99.90;;;;;;1943498;72;21142;-76
2021/12/03 00:25:11;;;;;;;4.37;2.92;;;2.00;99.90;;;;;;1954144;72;21165;-76
2021/12/03 00:27:37;;;;;;;4.10;2.65;;;2.00;99.90;;;;;;1957815;72;21136;-76
2021/12/03 00:30:03;;;;;;;4.65;2.47;;;2.10;99.90;;;;;;1948173;72;21079;-75
2021/12/03 00:32:29;;;;;;;3.55;2.60;;;1.90;99.90;;;;;;1953047;72;21185;-76
2021/12/03 00:34:55;;;;;;;4.47;3.15;;;1.90;99.90;;;;;;1948091;72;21152;-76
2021/12/03 00:37:22;;;;;;;3.87;2.62;;;2.00;99.90;;;;;;1945144;72;21437;-76
2021/12/03 00:39:48;;;;;;;7.33;2.52;;;2.00;99.90;;;;;;1952534;72;21138;-74
2021/12/03 00:42:17;;;;;;;4.10;2.70;;;2.00;99.90;;;;;;1951153;73;21132;-76
2021/12/03 00:44:44;;;;;;;6.72;2.70;;;2.00;99.90;;;;;;1950158;72;21326;-76
2021/12/03 00:47:10;;;;;;;4.47;2.67;;;1.90;99.90;;;;;;1960998;72;21088;-76
2021/12/03 00:49:36;;;;;;;5.50;3.02;;;1.90;99.90;;;;;;1957166;72;21145;-74
2021/12/03 00:52:02;;;;;;;4.53;2.90;;;1.70;99.90;;;;;;1942909;72;21226;-76
2021/12/03 00:54:28;;;;;;;5.15;2.98;;;1.60;99.90;;;;;;1940273;73;21063;-75
2021/12/03 00:56:54;;;;;;;4.83;3.40;;;1.50;99.90;;;;;;1950022;72;21140;-76
2021/12/03 00:59:20;;;;;;;6.12;3.52;;;1.50;99.90;;;;;;1943360;73;21124;-75
2021/12/03 01:01:46;;;;;;;4.12;3.10;;;1.50;99.90;;;;;;1956369;72;21144;-75
2021/12/03 01:04:12;;;;;;;5.55;3.40;;;1.50;99.90;;;;;;1963499;72;21036;-74
2021/12/03 01:06:39;;;;;;;3.90;3.22;;;1.40;99.90;;;;;;1951020;72;21054;-76
2021/12/03 01:09:05;;;;;;;7.22;3.15;;;1.50;99.90;;;;;;1953127;72;21149;-75
2021/12/03 01:11:31;;;;;;;3.92;3.50;;;1.30;99.90;;;;;;1945194;72;21572;-75
2021/12/03 01:14:00;;;;;;;6.87;3.40;;;1.30;99.90;;;;;;1960188;72;21555;-74
2021/12/03 01:16:25;;;;;;;7.10;3.75;;;1.30;99.90;;;;;;1945701;72;21095;-75
2021/12/03 01:18:51;;;;;;;3.50;3.20;;;1.20;99.90;;;;;;1947314;72;21075;-75
2021/12/03 01:21:18;;;;;;;5.17;3.00;;;1.20;99.90;;;;;;1946185;72;21071;-75
2021/12/03 01:23:44;;;;;;;6.15;3.50;;;1.20;99.90;;;;;;1957529;72;21048;-75
2021/12/03 01:26:10;;;;;;;4.35;3.42;;;1.20;99.90;;;;;;1940482;72;21060;-75
2021/12/03 01:28:37;;;;;;;5.45;3.55;;;1.20;99.90;;;;;;1938813;73;21121;-75
2021/12/03 01:31:03;;;;;;;5.95;3.67;;;1.20;99.90;;;;;;1944597;72;21132;-74
2021/12/03 01:33:29;;;;;;;9.70;3.50;;;1.20;99.90;;;;;;1945320;72;21148;-74
2021/12/03 01:35:55;;;;;;;5.10;3.70;;;1.10;99.90;;;;;;1959196;72;21225;-74
2021/12/03 01:38:21;;;;;;;5.12;3.72;;;1.00;99.90;;;;;;1954718;72;21648;-74
2021/12/03 01:40:47;;;;;;;8.25;4.30;;;1.00;99.90;;;;;;1943074;72;21478;-75
2021/12/03 01:43:18;;;;;;;5.28;3.30;;;1.00;99.90;;;;;;1952888;72;21470;-76
2021/12/03 01:45:41;;;;;;;10.43;4.33;;;1.10;99.90;;;;;;1944808;72;21074;-76
2021/12/03 01:48:07;;;;;;;8.45;4.03;;;1.10;99.90;;;;;;1958845;72;21154;-74
2021/12/03 01:50:33;;;;;;;5.65;4.20;;;1.10;99.90;;;;;;1959655;72;21482;-76
2021/12/03 01:52:59;;;;;;;8.15;4.15;;;1.20;99.90;;;;;;1941726;72;22792;-73
2021/12/03 01:55:26;;;;;;;5.53;3.95;;;1.20;99.90;;;;;;1957775;72;21169;-73
2021/12/03 01:57:52;;;;;;;8.53;4.10;;;1.20;99.90;;;;;;1941297;73;21054;-76
2021/12/03 02:00:18;;;;;;;5.22;4.00;;;1.10;99.90;;;;;;1943576;72;21148;-76
2021/12/03 02:02:44;;;;;;;4.60;3.62;;;1.00;99.90;;;;;;1945310;72;21023;-76
2021/12/03 02:05:10;;;;;;;5.85;3.87;;;1.00;99.90;;;;;;1959512;72;21063;-75
2021/12/03 02:07:36;;;;;;;8.15;4.75;;;1.00;99.90;;;;;;1958335;72;21136;-76
2021/12/03 02:10:02;;;;;;;7.15;4.30;;;0.90;99.90;;;;;;1959495;72;21075;-76
2021/12/03 02:12:28;;;;;;;4.58;4.15;;;0.90;99.90;;;;;;1941484;73;21073;-75
2021/12/03 02:14:55;;;;;;;4.35;3.77;;;0.80;99.90;;;;;;1951468;72;21560;-76
2021/12/03 02:17:21;;;;;;;7.15;4.42;;;0.80;99.90;;;;;;1955939;72;21467;-76
2021/12/03 02:19:47;;;;;;;6.97;4.78;;;0.80;99.90;;;;;;1944614;72;21032;-75
2021/12/03 02:22:13;;;;;;;5.90;4.58;;;0.80;99.90;;;;;;1946874;72;21063;-76
2021/12/03 02:24:39;;;;;;;8.10;4.50;;;0.80;99.90;;;;;;1935313;73;21062;-75
2021/12/03 02:27:05;;;;;;;8.68;4.75;;;0.80;99.90;;;;;;1941435;73;21217;-71
2021/12/03 02:29:31;;;;;;;7.58;4.87;;;0.80;99.90;;;;;;1947631;72;21055;-74
2021/12/03 02:31:57;;;;;;;6.55;4.70;;;0.80;99.90;;;;;;1949845;72;21187;-75
2021/12/03 02:34:23;;;;;;;26.15;4.90;;;0.70;99.90;;;;;;1939960;73;21059;-75
2021/12/03 02:36:50;;;;;;;9.15;5.62;;;0.70;99.90;;;;;;1944018;72;21116;-76
2021/12/03 02:39:16;;;;;;;9.43;5.72;;;0.60;99.90;;;;;;1938897;73;21032;-74
2021/12/03 02:41:42;;;;;;;6.50;5.12;;;0.50;99.90;;;;;;1938930;73;21063;-73
2021/12/03 02:44:08;;;;;;;7.95;5.33;;;0.50;99.90;;;;;;1952261;72;21106;-74
2021/12/03 02:46:34;;;;;;;7.83;5.33;;;0.50;99.90;;;;;;1948507;72;21515;-74
2021/12/03 02:49:00;;;;;;;6.40;5.75;;;0.30;99.90;;;;;;1947093;72;21458;-74
2021/12/03 02:51:26;;;;;;;10.45;6.22;;;0.40;99.90;;;;;;1946106;70;21511;-76
2021/12/03 02:53:52;;;;;;;9.10;6.28;;;0.40;99.90;;;;;;1943696;72;21446;-76
2021/12/03 02:56:19;;;;;;;11.53;6.33;;;0.40;99.90;;;;;;1938386;73;23237;-74
2021/12/03 02:58:45;;;;;;;7.70;5.75;;;0.50;99.90;;;;;;1960727;72;21177;-75
2021/12/03 03:01:11;;;;;;;5.97;4.90;;;0.50;99.90;;;;;;1947851;73;21136;-75
2021/12/03 03:03:37;;;;;;;8.28;5.83;;;0.50;99.90;;;;;;1956292;72;21120;-75
2021/12/03 03:06:03;;;;;;;7.53;6.00;;;0.40;99.90;;;;;;1946016;72;21032;-75
2021/12/03 03:08:29;;;;;;;14.73;6.58;;;0.40;99.90;;;;;;1956370;72;21032;-75
2021/12/03 03:10:55;;;;;;;9.00;5.67;;;0.30;99.90;;;;;;1955055;72;21058;-75
2021/12/03 03:13:21;;;;;;;8.13;6.00;;;0.20;99.90;;;;;;1944902;72;21061;-74
2021/12/03 03:15:48;;;;;;;25.30;5.92;;;0.30;99.90;;;;;;1949131;72;21071;-75
2021/12/03 03:18:14;;;;;;;9.90;5.12;;;0.20;99.90;;;;;;1953094;72;21132;-75
2021/12/03 03:20:40;;;;;;;6.12;5.45;;;0.20;99.90;;;;;;1944481;72;21136;-75
2021/12/03 03:23:06;;;;;;;7.60;6.67;;;0.10;99.90;;;;;;1954338;72;21035;-76
2021/12/03 03:25:32;;;;;;;8.10;6.42;;;0.00;99.90;;;;;;1951099;72;21469;-75
2021/12/03 03:27:58;;;;;;;8.33;6.42;;;0.10;99.90;;;;;;1959253;72;21568;-75
2021/12/03 03:30:24;;;;;;;8.50;6.10;;;0.10;99.90;;;;;;1960662;72;21486;-75
2021/12/03 03:32:50;;;;;;;12.65;6.45;;;0.00;99.90;;;;;;1948652;72;21095;-75
2021/12/03 03:35:16;;;;;;;8.65;6.58;;;0.00;99.90;;;;;;1952194;72;21075;-75
2021/12/03 03:37:43;;;;;;;10.53;6.45;;;0.00;99.90;;;;;;1938985;73;21128;-75
2021/12/03 03:40:09;;;;;;;10.18;6.65;;;0.00;99.90;;;;;;1955093;72;21035;-75
2021/12/03 03:42:35;;;;;;;10.75;7.20;;;-0.10;99.90;;;;;;1948834;72;21059;-75
2021/12/03 03:45:01;;;;;;;13.45;6.95;;;-0.10;99.90;;;;;;1948786;72;21124;-73
2021/12/03 03:47:27;;;;;;;14.47;7.35;;;-0.10;99.90;;;;;;1956430;72;21063;-74
2021/12/03 03:49:53;;;;;;;13.80;8.20;;;-0.10;99.90;;;;;;1939926;73;21020;-75
2021/12/03 03:52:19;;;;;;;9.95;7.12;;;-0.10;99.90;;;;;;1948996;72;21070;-74
2021/12/03 03:54:45;;;;;;;9.18;7.40;;;-0.10;99.90;;;;;;1959432;72;21128;-75
2021/12/03 03:57:12;;;;;;;8.78;6.65;;;-0.20;99.90;;;;;;1954204;72;21059;-75
2021/12/03 03:59:38;;;;;;;9.83;6.85;;;-0.20;99.90;;;;;;1954170;72;21197;-75
2021/12/03 04:02:04;;;;;;;11.65;7.08;;;-0.20;99.90;;;;;;1958486;72;21069;-74
2021/12/03 04:04:30;;;;;;;8.78;7.40;;;-0.10;99.90;;;;;;1950736;72;21066;-74
2021/12/03 04:06:56;;;;;;;8.35;7.37;;;0.00;99.90;;;;;;1960866;72;21082;-74
2021/12/03 04:09:22;;;;;;;8.25;6.97;;;-0.10;99.90;;;;;;1962243;72;21055;-75
2021/12/03 04:11:48;;;;;;;9.70;6.70;;;-0.10;99.90;;;;;;1951435;72;21218;-75
2021/12/03 04:14:14;;;;;;;10.05;7.03;;;0.00;99.90;;;;;;1937476;72;21108;-75
2021/12/03 04:16:41;;;;;;;16.45;7.55;;;0.10;99.90;;;;;;1954697;72;21063;-74
2021/12/03 04:19:07;;;;;;;12.63;8.13;;;0.20;99.90;;;;;;1940906;73;21137;-75
2021/12/03 04:21:33;;;;;;;16.55;8.43;;;0.20;99.90;;;;;;1939298;73;21141;-74
2021/12/03 04:23:59;;;;;;;10.70;8.20;;;0.30;99.90;;;;;;1946553;72;21471;-74
2021/12/03 04:26:25;;;;;;;14.15;8.18;;;0.40;99.90;;;;;;1949962;72;21491;-74
2021/12/03 04:28:51;;;;;;;15.43;7.37;;;0.40;99.90;;;;;;1958826;72;21549;-75
2021/12/03 04:31:17;;;;;;;12.25;7.47;;;0.50;99.90;;;;;;1948288;72;21036;-74
2021/12/03 04:33:43;;;;;;;8.68;7.10;;;0.50;99.90;;;;;;1952977;72;21132;-77
2021/12/03 04:36:10;;;;;;;11.12;8.03;;;0.60;99.90;;;;;;1948335;72;21067;-75
2021/12/03 04:38:36;;;;;;;9.65;8.05;;;0.60;99.90;;;;;;1945160;72;21063;-75
2021/12/03 04:41:03;;;;;;;15.08;8.55;;;0.60;99.90;;;;;;1939662;73;21132;-74
2021/12/03 04:43:29;;;;;;;10.32;7.78;;;0.60;99.90;;;;;;1959482;72;21517;-75
2021/12/03 04:45:55;;;;;;;11.65;7.42;;;0.80;99.90;;;;;;1957328;72;21471;-74
2021/12/03 04:48:21;;;;;;;11.50;7.47;;;0.90;99.90;;;;;;1944400;73;21440;-74
2021/12/03 04:50:47;;;;;;;7.47;6.77;;;0.90;99.90;;;;;;1950395;72;21128;-74
2021/12/03 04:53:13;;;;;;;9.30;6.45;;;0.90;99.90;;;;;;1942478;72;21063;-74
2021/12/03 04:55:39;;;;;;;11.83;7.28;;;0.90;99.90;;;;;;1946910;72;21136;-74
2021/12/03 04:58:06;;;;;;;9.00;7.33;;;1.10;99.90;;;;;;1949885;72;21132;-74
2021/12/03 05:00:32;;;;;;;11.30;7.60;;;1.10;99.90;;;;;;1947658;73;21165;-77
2021/12/03 05:02:59;;;;;;;9.15;7.55;;;1.00;99.90;;;;;;1954430;72;21114;-75
2021/12/03 05:05:27;;;;;;;13.13;7.10;;;1.00;99.90;;;;;;1955433;72;21066;-73
2021/12/03 05:08:02;;;;;;;10.85;7.17;;;1.10;99.90;;;;;;1943945;72;21109;-75
2021/12/03 05:10:21;;;;;;;9.05;7.22;;;1.00;99.90;;;;;;1945486;72;21079;-74
2021/12/03 05:12:47;;;;;;;8.18;6.10;;;1.20;99.90;;;;;;1939100;73;21129;-75
2021/12/03 05:15:13;;;;;;;13.90;6.67;;;1.20;99.90;;;;;;1957723;71;21071;-74
2021/12/03 05:17:39;;;;;;;9.85;7.15;;;1.30;99.90;;;;;;1947656;72;21070;-75
2021/12/03 05:20:05;;;;;;;8.13;6.70;;;1.30;99.90;;;;;;1954043;72;21153;-74
2021/12/03 05:22:31;;;;;;;7.87;6.30;;;1.40;99.90;;;;;;1938590;72;21027;-74
2021/12/03 05:24:57;;;;;;;9.60;5.90;;;1.40;99.90;;;;;;1953883;72;21495;-74
2021/12/03 05:27:23;;;;;;;9.70;5.80;;;1.30;99.90;;;;;;1939983;73;21539;-75
2021/12/03 05:29:49;;;;;;;10.18;6.20;;;1.30;99.90;;;;;;1946312;72;21594;-76
2021/12/03 05:32:16;;;;;;;8.25;7.05;;;1.30;99.90;;;;;;1955434;72;21185;-74
2021/12/03 05:34:42;;;;;;;9.65;6.87;;;1.40;99.90;;;;;;1955809;72;21063;-74
2021/12/03 05:37:08;;;;;;;13.32;6.58;;;1.30;99.90;;;;;;1947420;72;21114;-74
2021/12/03 05:39:34;;;;;;;9.98;5.97;;;1.20;99.90;;;;;;1933279;73;21031;-75
2021/12/03 05:42:00;;;;;;;7.58;6.03;;;1.20;99.90;;;;;;1955583;72;21058;-74
2021/12/03 05:44:28;;;;;;;8.48;6.58;;;1.30;99.90;;;;;;1948008;72;21063;-74
2021/12/03 05:46:54;;;;;;;9.45;6.08;;;1.40;99.90;;;;;;1955461;72;21400;-74
2021/12/03 05:49:20;;;;;;;9.05;6.35;;;1.30;99.90;;;;;;1947977;71;21137;-75
2021/12/03 05:51:46;;;;;;;8.35;6.28;;;1.40;99.90;;;;;;1949565;72;21128;-74
2021/12/03 05:54:12;;;;;;;10.08;6.53;;;1.40;99.90;;;;;;1946738;72;21153;-75
2021/12/03 05:56:38;;;;;;;8.30;6.80;;;1.40;99.90;;;;;;1944538;72;21027;-75
2021/12/03 05:59:05;;;;;;;10.70;7.78;;;1.40;99.90;;;;;;1946752;72;21219;-75
2021/12/03 06:01:31;;;;;;;7.90;6.55;;;1.40;99.90;;;;;;1957031;72;21130;-75
2021/12/03 06:03:57;;;;;;;8.83;7.03;;;1.40;99.90;;;;;;1938835;73;21058;-75
2021/12/03 06:06:23;;;;;;;8.18;6.62;;;1.30;99.90;;;;;;1942077;72;21078;-74
2021/12/03 06:08:49;;;;;;;8.28;7.28;;;1.40;99.90;;;;;;1953187;71;21075;-75
2021/12/03 06:11:15;;;;;;;7.20;5.62;;;1.50;99.90;;;;;;1947461;72;21571;-75
2021/12/03 06:13:41;;;;;;;13.68;7.15;;;1.50;99.90;;;;;;1956941;72;21531;-75
2021/12/03 06:16:07;;;;;;;9.90;7.50;;;1.50;99.90;;;;;;1961468;72;21501;-75
2021/12/03 06:18:34;;;;;;;9.70;6.95;;;1.50;99.90;;;;;;1954007;71;21132;-74
2021/12/03 06:21:00;;;;;;;10.08;7.28;;;1.50;99.90;;;;;;1950642;72;21059;-76
2021/12/03 06:23:26;;;;;;;8.00;6.95;;;1.50;99.90;;;;;;1960236;72;21144;-75
2021/12/03 06:25:52;;;;;;;10.20;7.08;;;1.50;99.90;;;;;;1955160;72;21058;-73
2021/12/03 06:28:18;;;;;;;9.28;7.20;;;1.50;99.90;;;;;;1938782;73;21164;-71
2021/12/03 06:30:44;;;;;;;9.10;6.60;;;1.40;99.90;;;;;;1953757;72;21032;-73
2021/12/03 06:33:10;;;;;;;9.25;7.65;;;1.50;99.90;;;;;;1958102;72;21131;-72
2021/12/03 06:35:36;;;;;;;17.30;8.68;;;1.50;99.90;;;;;;1954829;72;21058;-73
2021/12/03 06:38:02;;;;;;;7.85;6.67;;;1.50;99.90;;;;;;1952112;72;21136;-73
2021/12/03 06:40:29;;;;;;;18.85;7.00;;;1.60;99.90;;;;;;1954834;72;21265;-73
2021/12/03 06:42:55;;;;;;;9.43;7.50;;;1.70;99.90;;;;;;1943192;73;21078;-72
2021/12/03 06:45:21;;;;;;;7.58;6.25;;;1.80;99.90;;;;;;1947013;72;21129;-72
2021/12/03 06:47:47;;;;;;;7.58;6.55;;;1.90;99.90;;;;;;1947451;72;21194;-71
2021/12/03 06:50:17;;;;;;;8.23;7.42;;;1.90;99.90;;;;;;1956403;72;21164;-74
2021/12/03 06:52:44;;;;;;;9.88;6.95;;;1.70;99.90;;;;;;1941512;73;21099;-73
2021/12/03 06:55:12;;;;;;;9.40;7.28;;;1.70;99.90;;;;;;1944224;73;21178;-75
2021/12/03 06:57:37;;;;;;;10.78;7.10;;;1.80;99.90;;;;;;1941510;72;21573;-74
2021/12/03 07:00:03;;;;;;;7.78;6.90;;;1.80;99.90;;;;;;1956366;72;21491;-75
2021/12/03 07:02:29;;;;;;;11.00;7.30;;;1.90;99.90;;;;;;1942806;72;21462;-74
2021/12/03 07:04:55;;;;;;;8.50;6.45;;;1.90;99.90;;;;;;1941326;73;21537;-74
2021/12/03 07:07:21;;;;;;;7.22;6.17;;;1.90;99.90;;;;;;1947829;72;21141;-75
2021/12/03 07:09:48;;;;;;;10.23;6.70;;;1.80;99.90;;;;;;1951199;72;21160;-71
2021/12/03 07:12:15;;;;;;;6.92;5.53;;;1.80;99.90;;;;;;1952495;72;21032;-74
2021/12/03 07:14:41;;;;;;;8.40;5.97;;;1.70;99.90;;;;;;1949181;72;21066;-73
2021/12/03 07:17:08;;;;;;;7.95;5.80;;;1.70;99.90;;;;;;1959619;72;21095;-73
2021/12/03 07:19:34;;;;;;;11.43;5.83;;;1.60;99.90;;;;;;1957105;72;21431;-71
2021/12/03 07:22:01;;;;;;;7.35;6.05;;;1.50;99.90;;;;;;1955963;71;21575;-73
2021/12/03 07:24:27;;;;;;;6.17;5.53;;;1.50;99.90;;;;;;1939244;73;21466;-72
2021/12/03 07:26:53;;;;;;;15.78;6.53;;;1.50;99.90;;;;;;1941181;72;21498;-72
2021/12/03 07:29:19;;;;;;;11.35;6.28;;;1.50;99.90;;;;;;1950130;72;21070;-72
2021/12/03 07:31:45;;;;;;;9.00;5.12;;;1.40;99.90;;;;;;1947577;72;21031;-72
2021/12/03 07:34:12;;;;;;;8.90;5.90;;;1.30;99.90;;;;;;1942553;72;21071;-73
2021/12/03 07:36:38;;;;;;;8.08;5.75;;;1.40;99.90;;;;;;1949292;72;21548;-73
2021/12/03 07:39:05;;;;;;;11.40;5.95;;;1.40;99.90;;;;;;1960850;71;21486;-72
2021/12/03 07:41:31;;;;;;;7.12;5.40;;;1.50;99.90;;;;;;1954216;72;21502;-72
2021/12/03 07:43:57;;;;;;;8.28;5.80;;;1.50;99.90;;;;;;1956230;72;21067;-72
2021/12/03 07:46:23;;;;;;;7.00;5.45;;;1.40;99.90;;;;;;1948237;72;21051;-70
2021/12/03 07:48:50;;;;;;;9.85;5.85;;;1.40;99.90;;;;;;1947420;72;21106;-75
2021/12/03 07:51:16;;;;;;;6.47;4.85;;;1.50;99.90;;;;;;1941021;73;21198;-74
2021/12/03 07:53:42;;;;;;;9.50;6.33;;;1.50;99.90;;;;;;1956071;72;21075;-76
2021/12/03 07:56:09;;;;;;;8.68;5.28;;;1.40;99.90;;;;;;1938977;73;21097;-76
2021/12/03 07:58:35;;;;;;;14.63;6.17;;;1.50;99.90;;;;;;1953444;72;21471;-76
2021/12/03 08:01:01;;;;;;;12.28;6.58;;;1.40;99.90;;;;;;1955508;72;21275;-76
2021/12/03 08:03:27;;;;;;;8.45;5.65;;;1.30;99.90;;;;;;1949393;73;21122;-76
2021/12/03 08:05:53;;;;;;;10.43;5.87;;;1.40;99.90;;;;;;1952357;72;21028;-76
2021/12/03 08:08:24;;;;;;;7.87;6.05;;;1.40;99.90;;;;;;1953259;72;21071;-76
2021/12/03 08:10:50;;;;;;;9.35;5.90;;;1.40;99.90;;;;;;1956002;72;21148;-77
2021/12/03 08:13:16;;;;;;;10.15;5.65;;;1.40;99.90;;;;;;1950741;72;21506;-77
2021/12/03 08:15:42;;;;;;;9.03;5.60;;;1.50;99.90;;;;;;1939888;73;21436;-75
2021/12/03 08:18:08;;;;;;;11.38;5.30;;;1.70;99.90;;;;;;1953084;72;21482;-75
2021/12/03 08:20:34;;;;;;;5.70;4.87;;;1.80;99.90;;;;;;1955210;72;21148;-76
2021/12/03 08:23:01;;;;;;;8.00;5.60;;;1.90;99.90;;;;;;1949379;72;21124;-75
2021/12/03 08:25:27;;;;;;;9.23;5.50;;;2.00;99.90;;;;;;1940209;73;21145;-76
2021/12/03 08:27:53;;;;;;;7.85;4.87;;;2.00;99.90;;;;;;1949072;72;21136;-72
2021/12/03 08:30:19;;;;;;;10.65;4.47;;;2.10;99.90;;;;;;1944091;72;21074;-76
2021/12/03 08:32:45;;;;;;;5.75;4.72;;;2.20;99.90;;;;;;1951787;72;21058;-74
2021/12/03 08:35:11;;;;;;;8.15;4.70;;;2.30;99.90;;;;;;1946818;72;21062;-76
2021/12/03 08:37:43;;;;;;;6.28;5.03;;;2.40;99.90;;;;;;1944057;72;21054;-75
2021/12/03 08:40:06;;;;;;;9.20;4.62;;;2.60;99.90;;;;;;1958848;72;21092;-75
2021/12/03 08:42:32;;;;;;;5.72;4.28;;;2.60;99.90;;;;;;1953561;72;21641;-75
2021/12/03 08:44:59;;;;;;;8.03;3.60;;;2.70;99.90;;;;;;1941321;72;21121;-74
2021/12/03 08:47:25;;;;;;;9.90;4.90;;;2.80;99.90;;;;;;1944269;72;21467;-75
2021/12/03 08:49:54;;;;;;;4.35;3.62;;;2.80;99.90;;;;;;1952628;72;21568;-76
2021/12/03 08:54:54;;;;;;;4.53;3.52;;;3.10;99.90;;;;;;1942914;72;21189;-76
2021/12/03 08:57:21;;;;;;;4.72;3.60;;;3.30;99.90;;;;;;1943323;72;21152;-74
2021/12/03 08:59:47;;;;;;;6.83;3.05;;;3.50;99.90;;;;;;1947191;73;21063;-73
2021/12/03 09:02:13;;;;;;;5.35;3.83;;;3.70;99.90;;;;;;1944403;73;21072;-73
2021/12/03 09:04:39;;;;;;;3.45;2.72;;;3.90;99.90;;;;;;1952171;72;21186;-73
2021/12/03 09:07:06;;;;;;;5.08;2.47;;;3.90;99.90;;;;;;1942838;73;21553;-75
2021/12/03 09:09:32;;;;;;;3.77;2.77;;;3.90;99.90;;;;;;1942711;72;21062;-75
2021/12/03 09:11:58;;;;;;;10.50;2.40;;;3.70;99.90;;;;;;1946589;72;21036;-75
2021/12/03 09:14:38;;;;;;;3.12;2.40;;;3.60;99.90;;;;;;1943963;72;21059;-74
2021/12/03 09:19:54;;;;;;;6.92;2.35;;;3.90;99.90;;;;;;1954096;72;21619;-75
2021/12/03 09:22:20;;;;;;;3.20;2.50;;;4.10;99.90;;;;;;1951740;72;21123;-76
2021/12/03 09:24:40;;;;;;;12.20;2.37;;;4.20;99.90;;;;;;1953518;72;21177;-76
2021/12/03 09:27:07;;;;;;;5.53;2.10;;;4.40;99.90;;;;;;1951900;72;21071;-76
2021/12/03 09:29:35;;;;;;;2.90;2.00;;;4.60;99.90;;;;;;1941944;73;21140;-76
2021/12/03 09:32:00;;;;;;;6.05;2.33;;;4.80;99.90;;;;;;1953714;72;21095;-76
2021/12/03 09:34:29;;;;;;;2.67;2.17;;;4.90;99.90;;;;;;1939079;73;21062;-76
2021/12/03 09:36:54;;;;;;;3.70;2.30;;;5.10;99.90;;;;;;1938821;73;21230;-75
2021/12/03 09:39:23;;;;;;;4.55;2.08;;;5.10;99.90;;;;;;1938897;73;21027;-75
2021/12/03 09:41:49;;;;;;;2.50;1.80;;;4.80;99.90;;;;;;1941927;72;21093;-73
2021/12/03 09:44:16;;;;;;;3.85;2.17;;;4.60;99.90;;;;;;1939006;73;21249;-75
2021/12/03 09:46:42;;;;;;;3.15;2.20;;;4.40;99.90;;;;;;1946518;73;21071;-74
2021/12/03 09:49:23;;;;;;;3.25;2.58;;;4.50;99.90;;;;;;1957572;72;21058;-75
2021/12/03 09:51:40;;;;;;;2.22;2.05;;;4.70;99.90;;;;;;1942080;72;21146;-75
2021/12/03 09:56:48;;;;;;;2.42;2.00;;;5.30;99.90;;;;;;1933310;73;21062;-76
2021/12/03 10:02:09;;;;;;;3.22;1.80;;;5.20;99.90;;;;;;1955115;72;21624;-74
2021/12/03 10:12:18;;;;;;;4.30;2.15;;;5.40;99.90;;;;;;1933546;73;21067;-77
2021/12/03 10:14:48;;;;;;;7.40;2.25;;;5.60;99.90;;;;;;1937947;72;21547;-76
2021/12/03 10:20:11;;;;;;;5.17;2.08;;;5.60;99.90;;;;;;1936054;73;21177;-76
2021/12/03 10:22:58;;;;;;;2.50;1.72;;;5.50;99.90;;;;;;1962345;72;21080;-75
2021/12/03 10:28:05;;;;;;;3.60;1.80;;;5.60;99.90;;;;;;1946900;72;21067;-75
2021/12/03 10:33:08;;;;;;;2.17;1.82;;;5.50;99.90;;;;;;1958012;72;21205;-75
2021/12/03 10:38:27;;;;;;;2.83;2.00;;;6.00;99.90;;;;;;1950113;72;21164;-74
2021/12/03 10:43:18;;;;;;;3.80;2.05;;;5.40;99.90;;;;;;1948700;72;21088;-70
2021/12/03 10:46:07;;;;;;;3.20;1.92;;;5.80;99.90;;;;;;1956139;72;21104;-73
2021/12/03 10:48:29;;;;;;;2.55;2.02;;;6.20;99.90;;;;;;1957044;72;21091;-70
2021/12/03 10:51:04;;;;;;;5.03;3.02;;;5.40;99.90;;;;;;1953091;72;21508;-73
2021/12/03 10:53:36;;;;;;;3.00;1.92;;;4.60;99.90;;;;;;1953207;72;21107;-76
2021/12/03 10:56:21;;;;;;;5.67;1.98;;;4.30;99.90;;;;;;1957140;72;21108;-76
2021/12/03 11:12:23;;;;;;;5.83;2.22;;;5.70;99.90;;;;;;1950348;72;21173;-76
2021/12/03 11:20:17;;;;;;;3.25;1.70;;;6.40;99.90;;;;;;1958752;72;21181;-79
2021/12/03 11:27:46;;;;;;;2.45;1.85;;;6.60;99.90;;;;;;1949169;72;21181;-81
2021/12/03 11:30:50;;;;;;;3.08;1.45;;;5.80;99.90;;;;;;1957905;72;21161;-82
2021/12/03 11:37:54;;;;;;;4.78;1.65;;;6.70;99.90;;;;;;1943338;72;21476;-80
2021/12/03 11:43:24;;;;;;;5.72;2.17;;;7.40;99.90;;;;;;1953131;72;21056;-81
2021/12/03 12:15:34;;;;;;;4.67;2.35;;;5.60;99.90;;;;;;1950064;73;21055;-80
2021/12/03 12:18:04;;;;;;;5.40;1.85;;;5.80;99.90;;;;;;1952297;72;21168;-79
2021/12/03 12:23:32;;;;;;;2.47;1.80;;;5.30;99.90;;;;;;1912559;72;21096;-81
2021/12/03 12:25:15;;;;;;;3.80;1.67;;;5.00;99.90;;;;;;1944938;72;21090;-80
2021/12/03 12:28:22;;;;;;;2.10;1.87;;;4.80;99.90;;;;;;1937250;72;21074;-81
2021/12/03 12:39:14;;;;;;;2.33;2.00;;;5.50;99.90;;;;;;1956183;72;21107;-79
2021/12/03 13:02:55;;;;;;;2.62;1.80;;;7.30;99.90;;;;;;1946908;72;21548;-74
2021/12/03 13:20:31;;;;;;;3.45;1.55;;;4.90;99.90;;;;;;1960634;72;21185;-75
2021/12/03 13:22:54;;;;;;;1.85;1.50;;;5.50;99.90;;;;;;1949996;72;21700;-79
2021/12/03 13:37:12;;;;;;;2.17;1.70;;;6.90;99.90;;;;;;1945160;72;21059;-79
2021/12/03 14:05:58;;;;;;;5.03;2.27;;;5.70;99.90;;;;;;1941259;73;21501;-80
2021/12/03 14:18:38;;;;;;;2.00;1.80;;;5.60;99.90;;;;;;1949650;72;21059;-77
2021/12/03 14:37:18;;;;;;;1.98;1.32;;;4.90;99.90;;;;;;1910551;74;21105;-80
2021/12/03 14:42:25;;;;;;;1.85;1.37;;;4.80;99.90;;;;;;1940810;73;21486;-80
2021/12/03 14:44:51;;;;;;;2.35;1.35;;;4.70;99.90;;;;;;1940906;72;21107;-82
2021/12/03 14:52:43;;;;;;;2.72;1.85;;;4.50;99.90;;;;;;1941396;72;21191;-83
2021/12/03 14:55:05;;;;;;;1.42;1.32;;;4.60;99.90;;;;;;1943914;72;21080;-83
2021/12/03 14:57:55;;;;;;;1.60;1.45;;;4.50;99.90;;;;;;1954233;72;21150;-82
2021/12/03 15:01:05;;;;;;;44.67;2.35;;;4.50;99.90;;;;;;1955891;72;21088;-82
2021/12/03 15:02:50;;;;;;;2.40;1.70;;;4.50;99.90;;;;;;1931206;72;21153;-83
2021/12/03 15:05:55;;;;;;;3.20;1.62;;;4.50;99.90;;;;;;1950753;72;21508;-81
2021/12/03 15:07:40;;;;;;;;;;;4.40;99.90;;;;;;1939791;72;21087;-83
2021/12/03 15:10:13;;;;;;;3.02;1.90;;;4.30;99.90;;;;;;1945945;72;20141;-82
2021/12/03 15:13:06;;;;;;;2.98;1.77;;;4.30;99.90;;;;;;1956497;72;21536;-81
2021/12/03 15:23:01;;;;;;;5.70;3.40;;;4.00;99.90;;;;;;1948469;72;21490;-81
2021/12/03 15:28:03;;;;;;;3.10;2.77;;;3.90;99.90;;;;;;1955587;72;21119;-81
2021/12/03 15:33:06;;;;;;;7.25;2.55;;;3.70;99.90;;;;;;1953059;72;21092;-81
2021/12/03 15:38:21;;;;;;;3.00;1.90;;;3.70;99.90;;;;;;1941012;73;21529;-85
2021/12/03 15:41:08;;;;;;;2.37;2.00;;;3.50;99.90;;;;;;1955795;72;21143;-84
2021/12/03 16:05:25;;;;;;;9.80;1.95;;;3.30;99.90;;;;;;1959343;71;21198;-85
2021/12/03 16:13:09;;;;;;;5.78;2.00;;;3.30;99.90;;;;;;1954151;72;21161;-83
2021/12/03 16:23:21;;;;;;;4.42;2.15;;;3.10;99.90;;;;;;1948615;72;21092;-81
2021/12/03 16:26:06;;;;;;;2.62;1.62;;;3.00;99.90;;;;;;1949153;72;21090;-80
2021/12/03 16:52:33;;;;;;;5.00;2.65;;;2.60;99.90;;;;;;1949850;72;21085;-79
2021/12/03 16:55:01;;;;;;;12.43;3.33;;;2.60;99.90;;;;;;1943462;73;21139;-78
2021/12/03 16:57:32;;;;;;;7.60;4.25;;;2.60;99.90;;;;;;1939278;73;21616;-79
2021/12/03 16:59:59;;;;;;;10.48;4.08;;;2.60;99.90;;;;;;1954722;72;21475;-77
2021/12/03 17:02:35;;;;;;;7.12;4.00;;;2.50;99.90;;;;;;1945465;72;21291;-78
2021/12/03 17:07:58;;;;;;;9.43;4.83;;;2.50;99.90;;;;;;1923530;72;21424;-78
2021/12/03 17:12:42;;;;;;;13.38;4.83;;;2.50;99.90;;;;;;1954330;72;20143;-78
2021/12/03 17:15:18;;;;;;;8.08;4.50;;;2.50;99.90;;;;;;1958568;72;21168;-78
2021/12/03 17:31:22;;;;;;;9.43;6.08;;;2.50;99.90;;;;;;1955746;72;21141;-74
2021/12/03 17:57:55;;;;;;;9.55;6.60;;;2.40;99.90;;;;;;1954146;72;21219;-76
2021/12/03 18:00:28;;;;;;;13.20;8.68;;;2.50;99.90;;;;;;1957346;72;21500;-77
2021/12/03 18:02:57;;;;;;;15.40;6.67;;;2.60;99.90;;;;;;1958150;72;21096;-77
2021/12/03 18:10:49;;;;;;;8.30;5.35;;;2.40;99.90;;;;;;1937701;72;21484;-78
2021/12/03 18:46:24;;;;;;;23.62;5.42;;;2.20;99.90;;;;;;1933266;73;21067;-80
2021/12/03 18:56:23;;;;;;;15.43;6.17;;;2.20;99.90;;;;;;1845242;77;21470;-81
2021/12/03 18:58:44;;;;;;;10.90;5.65;;;2.20;99.90;;;;;;1844141;77;21075;-82
2021/12/03 19:01:12;;;;;;;8.78;5.17;;;2.20;99.90;;;;;;1878893;73;21070;-84
2021/12/03 19:06:25;;;;;;;9.53;5.37;;;2.30;99.90;;;;;;1948376;72;21091;-80
2021/12/03 19:08:55;;;;;;;;;;;2.10;99.90;;;;;;1951369;72;21086;-83
2021/12/03 19:11:59;;;;;;;;;;;;;;;;;;;;;
2021/12/03 19:14:07;;;;;;;15.58;5.47;;;2.20;99.90;;;;;;1947642;72;21055;-81